createdAt,value
2023-01-12T00:01:32.910Z,1.77
2023-01-12T00:04:00.063Z,1.60
2023-01-12T00:06:26.816Z,1.77
2023-01-12T00:08:53.881Z,2.07
2023-01-12T00:11:21.354Z,2.90
2023-01-12T00:13:48.230Z,2.23
2023-01-12T00:16:34.937Z,2.63
2023-01-12T00:19:02.445Z,2.13
2023-01-12T00:21:31.765Z,2.50
2023-01-12T00:23:58.449Z,2.47
2023-01-12T00:26:25.143Z,2.53
2023-01-12T00:28:51.888Z,2.30
2023-01-12T00:31:21.153Z,2.03
2023-01-12T00:33:47.884Z,3.17
2023-01-12T00:36:17.627Z,1.43
2023-01-12T00:38:44.673Z,2.50
2023-01-12T00:41:33.275Z,2.00
2023-01-12T00:44:18.848Z,1.37
2023-01-12T00:46:45.581Z,2.43
2023-01-12T00:49:12.295Z,2.00
2023-01-12T00:51:39.049Z,2.20
2023-01-12T00:54:08.154Z,2.00
2023-01-12T00:56:36.183Z,2.23
2023-01-12T00:59:03.632Z,1.73
2023-01-12T01:01:30.713Z,2.57
2023-01-12T01:03:57.484Z,2.13
2023-01-12T01:06:24.461Z,2.70
2023-01-12T01:08:51.793Z,1.90
2023-01-12T01:11:19.227Z,1.77
2023-01-12T01:13:46.130Z,2.23
2023-01-12T01:16:15.858Z,2.47
2023-01-12T01:18:43.057Z,1.87
2023-01-12T01:21:12.087Z,1.80
2023-01-12T01:23:39.721Z,2.47
2023-01-12T01:26:13.386Z,2.13
2023-01-12T01:28:40.882Z,2.37
2023-01-12T01:31:16.640Z,2.30
2023-01-12T01:33:44.135Z,1.90
2023-01-12T01:36:11.707Z,2.13
2023-01-12T01:38:39.617Z,2.60
2023-01-12T01:41:07.249Z,2.67
2023-01-12T01:43:52.440Z,2.37
2023-01-12T01:46:27.549Z,2.23
2023-01-12T01:48:54.787Z,2.70
2023-01-12T01:51:22.308Z,2.50
2023-01-12T01:53:50.421Z,2.73
2023-01-12T01:56:23.820Z,2.60
2023-01-12T01:59:01.924Z,3.00
2023-01-12T02:01:28.976Z,2.20
2023-01-12T02:03:56.459Z,2.00
2023-01-12T02:06:26.166Z,2.20
2023-01-12T02:09:00.408Z,1.90
2023-01-12T02:11:46.324Z,2.50
2023-01-12T02:14:32.141Z,2.30
2023-01-12T02:17:26.183Z,1.83
2023-01-12T02:19:53.215Z,2.33
2023-01-12T02:22:52.469Z,2.10
2023-01-12T02:26:11.394Z,2.30
2023-01-12T02:28:59.127Z,2.80
2023-01-12T02:31:54.155Z,2.20
2023-01-12T02:34:45.606Z,2.10
2023-01-12T02:37:21.487Z,2.23
2023-01-12T02:40:00.003Z,2.50
2023-01-12T02:42:42.002Z,1.70
2023-01-12T02:45:17.627Z,1.70
2023-01-12T02:47:47.335Z,1.83
2023-01-12T02:50:21.487Z,2.00
2023-01-12T02:52:57.283Z,2.13
2023-01-12T02:55:26.552Z,1.70
2023-01-12T02:57:55.845Z,2.50
2023-01-12T03:00:22.888Z,1.93
2023-01-12T03:02:50.742Z,2.00
2023-01-12T03:05:17.596Z,1.80
2023-01-12T03:07:55.639Z,2.07
2023-01-12T03:11:14.957Z,1.63
2023-01-12T03:13:47.703Z,1.77
2023-01-12T03:16:22.273Z,2.03
2023-01-12T03:18:57.208Z,1.77
2023-01-12T03:21:34.960Z,2.00
2023-01-12T03:24:06.198Z,1.57
2023-01-12T03:26:36.144Z,1.37
2023-01-12T03:29:11.441Z,1.90
2023-01-12T03:31:38.623Z,1.93
2023-01-12T03:34:05.545Z,1.77
2023-01-12T03:36:51.756Z,2.43
2023-01-12T03:39:30.468Z,1.83
2023-01-12T03:42:07.519Z,1.70
2023-01-12T03:44:45.746Z,1.40
2023-01-12T03:47:18.473Z,1.20
2023-01-12T03:49:51.000Z,1.40
2023-01-12T03:52:18.683Z,1.70
2023-01-12T03:54:46.586Z,1.47
2023-01-12T03:57:13.954Z,1.47
2023-01-12T03:59:41.526Z,2.10
2023-01-12T04:02:08.728Z,1.23
2023-01-12T04:04:35.782Z,1.40
2023-01-12T04:07:02.613Z,0.80
2023-01-12T04:09:29.308Z,2.03
2023-01-12T04:12:11.435Z,0.83
2023-01-12T04:14:40.405Z,1.47
2023-01-12T04:17:08.771Z,2.30
2023-01-12T04:19:35.503Z,1.03
2023-01-12T04:22:20.957Z,1.20
2023-01-12T04:24:48.690Z,1.20
2023-01-12T04:27:16.385Z,1.10
2023-01-12T04:29:43.560Z,1.30
2023-01-12T04:32:10.719Z,1.10
2023-01-12T04:34:39.136Z,1.30
2023-01-12T04:37:05.935Z,1.43
2023-01-12T04:39:32.703Z,1.43
2023-01-12T04:41:59.494Z,1.00
2023-01-12T04:44:26.239Z,1.23
2023-01-12T04:46:53.055Z,1.23
2023-01-12T04:49:19.876Z,1.20
2023-01-12T04:51:46.661Z,1.23
2023-01-12T04:54:13.602Z,1.70
2023-01-12T04:56:40.659Z,1.50
2023-01-12T04:59:09.827Z,1.33
2023-01-12T05:01:39.002Z,1.33
2023-01-12T05:04:07.845Z,1.80
2023-01-12T05:06:34.898Z,1.33
2023-01-12T05:09:20.233Z,1.30
2023-01-12T05:11:47.192Z,0.97
2023-01-12T05:14:13.917Z,1.67
2023-01-12T05:16:40.788Z,1.17
2023-01-12T05:19:08.528Z,1.37
2023-01-12T05:21:35.307Z,0.97
2023-01-12T05:24:02.054Z,1.27
2023-01-12T05:26:28.763Z,1.50
2023-01-12T05:28:55.488Z,1.17
2023-01-12T05:31:22.252Z,1.67
2023-01-12T05:33:49.072Z,1.10
2023-01-12T05:36:17.751Z,0.97
2023-01-12T05:38:44.526Z,1.20
2023-01-12T05:41:13.177Z,0.90
2023-01-12T05:43:52.479Z,1.07
2023-01-12T05:46:24.990Z,1.03
2023-01-12T05:48:53.446Z,1.00
2023-01-12T05:51:20.472Z,0.73
2023-01-12T05:53:47.708Z,1.30
2023-01-12T05:56:20.349Z,1.33
2023-01-12T05:58:58.640Z,1.20
2023-01-12T06:01:26.434Z,1.27
2023-01-12T06:04:01.104Z,1.00
2023-01-12T06:06:31.386Z,1.00
2023-01-12T06:08:59.610Z,0.73
2023-01-12T06:11:44.973Z,1.10
2023-01-12T06:14:12.014Z,1.20
2023-01-12T06:16:40.729Z,0.87
2023-01-12T06:19:08.653Z,1.07
2023-01-12T06:21:35.549Z,0.90
2023-01-12T06:24:02.293Z,0.70
2023-01-12T06:26:29.021Z,0.60
2023-01-12T06:28:55.724Z,0.63
2023-01-12T06:31:22.528Z,0.97
2023-01-12T06:33:49.241Z,0.53
2023-01-12T06:36:15.969Z,0.50
2023-01-12T06:38:43.365Z,0.70
2023-01-12T06:41:32.535Z,0.83
2023-01-12T06:44:00.144Z,0.97
2023-01-12T06:46:27.593Z,1.57
2023-01-12T06:49:00.621Z,0.87
2023-01-12T06:51:27.638Z,0.80
2023-01-12T06:53:54.616Z,1.07
2023-01-12T06:56:21.941Z,1.00
2023-01-12T06:58:48.844Z,0.60
2023-01-12T07:01:16.949Z,1.00
2023-01-12T07:03:44.135Z,1.00
2023-01-12T07:06:11.105Z,0.90
2023-01-12T07:08:37.969Z,1.00
2023-01-12T07:11:08.102Z,0.80
2023-01-12T07:13:35.315Z,1.03
2023-01-12T07:16:02.382Z,0.60
2023-01-12T07:18:30.065Z,1.00
2023-01-12T07:20:57.003Z,0.80
2023-01-12T07:23:23.815Z,0.80
2023-01-12T07:25:50.583Z,1.20
2023-01-12T07:28:17.329Z,1.07
2023-01-12T07:30:44.093Z,0.80
2023-01-12T07:33:12.954Z,1.00
2023-01-12T07:35:40.870Z,1.00
2023-01-12T07:38:08.051Z,0.90
2023-01-12T07:40:35.144Z,1.00
2023-01-12T07:43:04.651Z,0.90
2023-01-12T07:45:31.896Z,0.97
2023-01-12T07:47:58.820Z,1.00
2023-01-12T07:50:27.635Z,1.00
2023-01-12T07:52:54.734Z,0.90
2023-01-12T07:55:21.712Z,0.90
2023-01-12T07:58:00.130Z,1.10
2023-01-12T08:00:27.873Z,1.00
2023-01-12T08:02:56.384Z,1.17
2023-01-12T08:05:23.442Z,1.00
2023-01-12T08:09:46.426Z,1.53
2023-01-12T08:12:13.204Z,1.20
2023-01-12T08:14:41.710Z,1.30
2023-01-12T08:17:18.660Z,1.50
2023-01-12T08:20:02.623Z,1.10
2023-01-12T08:22:34.861Z,1.03
2023-01-12T08:25:10.647Z,1.00
2023-01-12T08:27:40.672Z,0.97
2023-01-12T08:30:08.791Z,0.80
2023-01-12T08:32:36.868Z,1.30
2023-01-12T08:35:04.949Z,1.23
2023-01-12T08:37:34.277Z,1.50
2023-01-12T08:40:01.627Z,1.20
2023-01-12T08:42:30.855Z,1.00
2023-01-12T08:44:58.414Z,1.00
2023-01-12T08:47:27.411Z,1.30
2023-01-12T08:49:54.868Z,0.90
2023-01-12T08:52:22.053Z,1.20
2023-01-12T08:54:49.994Z,0.97
2023-01-12T08:57:17.053Z,1.43
2023-01-12T08:59:44.353Z,0.83
2023-01-12T09:02:12.980Z,0.80
2023-01-12T09:04:40.559Z,1.00
2023-01-12T09:07:11.636Z,1.10
2023-01-12T09:09:38.692Z,1.10
2023-01-12T09:12:06.219Z,1.00
2023-01-12T09:14:38.445Z,0.93
2023-01-12T09:17:06.854Z,1.10
2023-01-12T09:19:33.852Z,1.20
2023-01-12T09:22:00.691Z,1.00
2023-01-12T09:24:27.651Z,0.90
2023-01-12T09:26:54.652Z,1.43
2023-01-12T09:29:21.441Z,0.77
2023-01-12T09:31:48.301Z,1.20
2023-01-12T09:34:15.415Z,1.07
2023-01-12T09:36:42.530Z,1.10
2023-01-12T09:39:18.677Z,0.97
2023-01-12T09:42:11.889Z,1.10
2023-01-12T09:45:00.802Z,1.40
2023-01-12T09:47:31.094Z,0.87
2023-01-12T09:50:09.248Z,0.87
2023-01-12T09:52:48.381Z,0.97
2023-01-12T09:55:23.904Z,1.17
2023-01-12T09:58:19.280Z,1.50
2023-01-12T10:00:57.553Z,1.10
2023-01-12T10:03:35.671Z,1.20
2023-01-12T10:06:02.633Z,0.93
2023-01-12T10:08:42.576Z,1.00
2023-01-12T10:11:18.917Z,0.90
2023-01-12T10:14:00.673Z,0.57
2023-01-12T10:16:46.042Z,0.70
2023-01-12T10:19:32.805Z,0.80
2023-01-12T10:22:03.983Z,0.70
2023-01-12T10:24:30.736Z,0.90
2023-01-12T10:27:02.245Z,1.10
2023-01-12T10:29:31.681Z,0.80
2023-01-12T10:31:58.517Z,1.30
2023-01-12T10:34:25.326Z,0.97
2023-01-12T10:36:58.839Z,1.03
2023-01-12T10:39:35.277Z,1.10
2023-01-12T10:42:41.078Z,1.00
2023-01-12T10:45:22.791Z,1.00
2023-01-12T10:47:53.547Z,1.27
2023-01-12T10:50:27.974Z,0.90
2023-01-12T10:53:02.740Z,1.13
2023-01-12T10:55:32.848Z,1.00
2023-01-12T10:57:59.904Z,0.73
2023-01-12T11:00:29.772Z,0.97
2023-01-12T11:02:56.781Z,0.80
2023-01-12T11:05:38.639Z,0.83
2023-01-12T11:08:22.394Z,1.00
2023-01-12T11:10:49.300Z,0.60
2023-01-12T11:13:36.843Z,0.83
2023-01-12T11:16:25.069Z,0.80
2023-01-12T11:19:10.418Z,0.80
2023-01-12T11:21:41.383Z,0.57
2023-01-12T11:24:19.767Z,0.80
2023-01-12T11:27:10.959Z,0.80
2023-01-12T11:29:43.515Z,0.83
2023-01-12T11:32:21.445Z,1.00
2023-01-12T11:34:56.859Z,0.80
2023-01-12T11:37:24.190Z,1.10
2023-01-12T11:40:08.253Z,0.90
2023-01-12T11:42:55.325Z,0.73
2023-01-12T11:45:37.733Z,1.00
2023-01-12T11:48:26.186Z,1.00
2023-01-12T11:50:54.001Z,0.70
2023-01-12T11:53:23.356Z,0.93
2023-01-12T11:56:14.715Z,1.40
2023-01-12T11:58:57.813Z,0.90
2023-01-12T12:01:53.374Z,0.93
2023-01-12T12:04:52.836Z,1.07
2023-01-12T12:07:54.794Z,0.80
2023-01-12T12:10:55.085Z,0.93
2023-01-12T12:13:31.068Z,1.13
2023-01-12T12:16:24.311Z,1.13
2023-01-12T12:19:14.027Z,1.00
2023-01-12T12:21:58.966Z,1.00
2023-01-12T12:24:50.839Z,1.50
2023-01-12T12:27:33.586Z,1.40
2023-01-12T12:30:21.803Z,1.03
2023-01-12T12:33:24.173Z,0.90
2023-01-12T12:35:50.875Z,0.90
2023-01-12T12:38:23.272Z,0.90
2023-01-12T12:41:41.312Z,0.90
2023-01-12T12:44:44.375Z,0.90
2023-01-12T12:47:48.976Z,1.00
2023-01-12T12:50:34.373Z,1.00
2023-01-12T12:53:24.259Z,1.10
2023-01-12T12:55:52.726Z,1.13
2023-01-12T12:58:22.561Z,0.90
2023-01-12T13:00:54.583Z,1.37
2023-01-12T13:03:39.559Z,0.80
2023-01-12T13:06:19.754Z,0.60
2023-01-12T13:08:49.087Z,0.70
2023-01-12T13:11:15.872Z,0.90
2023-01-12T13:14:05.059Z,0.50
2023-01-12T13:16:49.272Z,0.63
2023-01-12T13:19:40.163Z,0.73
2023-01-12T13:22:28.691Z,0.50
2023-01-12T13:24:57.453Z,0.70
2023-01-12T13:28:01.457Z,0.40
2023-01-12T13:30:31.402Z,0.50
2023-01-12T13:33:16.150Z,0.53
2023-01-12T13:35:46.637Z,0.70
2023-01-12T13:38:39.361Z,0.67
2023-01-12T13:41:15.414Z,0.60
2023-01-12T13:43:47.469Z,0.70
2023-01-12T13:46:30.930Z,0.80
2023-01-12T13:48:58.711Z,0.50
2023-01-12T13:51:25.380Z,0.50
2023-01-12T13:54:00.228Z,0.50
2023-01-12T13:56:27.341Z,0.60
2023-01-12T13:59:01.793Z,0.70
2023-01-12T14:01:28.821Z,0.70
2023-01-12T14:04:07.551Z,0.70
2023-01-12T14:06:43.176Z,0.70
2023-01-12T14:09:22.013Z,0.90
2023-01-12T14:12:00.648Z,0.67
2023-01-12T14:15:15.004Z,1.00
2023-01-12T14:17:57.764Z,0.90
2023-01-12T14:20:27.232Z,0.63
2023-01-12T14:23:14.415Z,0.90
2023-01-12T14:25:42.335Z,0.90
2023-01-12T14:28:21.404Z,0.90
2023-01-12T14:30:52.364Z,0.73
2023-01-12T14:33:24.828Z,0.83
2023-01-12T14:35:57.386Z,1.20
2023-01-12T14:38:26.951Z,0.83
2023-01-12T14:41:27.524Z,0.90
2023-01-12T14:44:13.143Z,0.90
2023-01-12T14:46:51.360Z,1.00
2023-01-12T14:49:20.276Z,0.90
2023-01-12T14:51:55.879Z,1.00
2023-01-12T14:54:27.213Z,0.90
2023-01-12T14:57:05.434Z,0.90
2023-01-12T14:59:42.162Z,0.87
2023-01-12T15:02:25.615Z,0.80
2023-01-12T15:05:27.540Z,0.80
2023-01-12T15:07:55.744Z,1.00
2023-01-12T15:10:33.560Z,0.60
2023-01-12T15:13:23.401Z,0.90
2023-01-12T15:16:13.279Z,0.80
2023-01-12T15:18:58.662Z,0.90
2023-01-12T15:21:45.179Z,0.80
2023-01-12T15:24:45.311Z,0.80
2023-01-12T15:27:16.145Z,0.77
2023-01-12T15:29:42.937Z,0.90
2023-01-12T15:32:46.947Z,0.87
2023-01-12T15:35:26.450Z,1.00
2023-01-12T15:37:54.730Z,0.97
2023-01-12T15:40:22.903Z,1.07
2023-01-12T15:42:53.049Z,0.63
2023-01-12T15:45:38.297Z,1.00
2023-01-12T15:48:06.124Z,0.90
2023-01-12T15:50:43.905Z,1.00
2023-01-12T15:53:18.292Z,1.27
2023-01-12T15:55:45.443Z,1.13
2023-01-12T15:58:12.275Z,1.30
2023-01-12T16:00:39.103Z,1.33
2023-01-12T16:03:06.265Z,1.10
2023-01-12T16:05:33.016Z,1.10
2023-01-12T16:07:59.763Z,1.20
2023-01-12T16:10:30.145Z,1.10
2023-01-12T16:13:01.803Z,1.20
2023-01-12T16:15:30.389Z,1.10
2023-01-12T16:17:57.302Z,1.23
2023-01-12T16:20:24.273Z,1.20
2023-01-12T16:22:51.058Z,1.10
2023-01-12T16:25:17.963Z,1.10
2023-01-12T16:27:44.719Z,1.40
2023-01-12T16:30:15.918Z,1.00
2023-01-12T16:32:46.273Z,1.10
2023-01-12T16:35:14.541Z,1.20
2023-01-12T16:37:41.324Z,0.83
2023-01-12T16:40:09.173Z,1.10
2023-01-12T16:42:35.869Z,1.30
2023-01-12T16:45:03.513Z,1.33
2023-01-12T16:47:30.378Z,1.20
2023-01-12T16:49:57.167Z,0.93
2023-01-12T16:52:24.243Z,0.73
2023-01-12T16:54:51.037Z,0.90
2023-01-12T16:57:18.732Z,0.87
2023-01-12T16:59:45.521Z,1.37
2023-01-12T17:02:16.543Z,1.40
2023-01-12T17:04:44.877Z,1.30
2023-01-12T17:07:11.889Z,1.30
2023-01-12T17:09:40.345Z,1.20
2023-01-12T17:12:08.080Z,1.30
2023-01-12T17:14:36.004Z,1.20
2023-01-12T17:17:07.310Z,1.53
2023-01-12T17:19:36.616Z,1.40
2023-01-12T17:22:06.640Z,1.47
2023-01-12T17:24:35.519Z,1.57
2023-01-12T17:27:02.674Z,1.50
2023-01-12T17:29:29.555Z,1.50
2023-01-12T17:32:03.729Z,1.30
2023-01-12T17:34:35.725Z,1.30
2023-01-12T17:37:04.180Z,1.33
2023-01-12T17:39:31.343Z,1.50
2023-01-12T17:42:16.748Z,1.37
2023-01-12T17:44:43.683Z,1.40
2023-01-12T17:47:11.321Z,1.67
2023-01-12T17:49:38.210Z,1.43
2023-01-12T17:52:05.459Z,1.63
2023-01-12T17:54:32.277Z,1.60
2023-01-12T17:56:59.556Z,1.47
2023-01-12T17:59:26.341Z,1.60
2023-01-12T18:01:53.682Z,1.83
2023-01-12T18:04:21.531Z,1.60
2023-01-12T18:06:48.295Z,1.87
2023-01-12T18:09:15.227Z,1.60
2023-01-12T18:11:42.081Z,1.70
2023-01-12T18:14:09.831Z,1.60
2023-01-12T18:16:37.167Z,1.70
2023-01-12T18:19:06.839Z,1.50
2023-01-12T18:21:34.214Z,1.20
2023-01-12T18:24:01.729Z,1.90
2023-01-12T18:26:31.178Z,1.53
2023-01-12T18:28:59.058Z,1.40
2023-01-12T18:31:28.728Z,1.80
2023-01-12T18:34:04.164Z,2.23
2023-01-12T18:36:32.470Z,1.80
2023-01-12T18:38:59.826Z,1.73
2023-01-12T18:41:45.198Z,1.87
2023-01-12T18:44:11.992Z,2.20
2023-01-12T18:47:01.699Z,1.90
2023-01-12T18:49:30.813Z,1.97
2023-01-12T18:52:16.443Z,2.17
2023-01-12T18:54:44.878Z,2.30
2023-01-12T18:57:14.060Z,1.90
2023-01-12T18:59:41.987Z,2.10
2023-01-12T19:02:14.535Z,2.10
2023-01-12T19:05:06.176Z,2.13
2023-01-12T19:07:43.588Z,1.90
2023-01-12T19:10:10.672Z,2.03
2023-01-12T19:12:37.438Z,1.80
2023-01-12T19:15:23.065Z,2.00
2023-01-12T19:17:49.886Z,2.10
2023-01-12T19:20:17.343Z,1.90
2023-01-12T19:23:03.099Z,1.73
2023-01-12T19:25:48.572Z,2.27
2023-01-12T19:28:35.722Z,2.30
2023-01-12T19:31:09.753Z,2.20
2023-01-12T19:33:36.989Z,1.80
2023-01-12T19:36:10.182Z,1.93
2023-01-12T19:38:37.673Z,2.00
2023-01-12T19:41:14.434Z,2.00
2023-01-12T19:43:45.858Z,2.00
2023-01-12T19:46:15.424Z,1.80
2023-01-12T19:48:42.265Z,1.60
2023-01-12T19:51:10.990Z,1.63
2023-01-12T19:53:38.984Z,1.60
2023-01-12T19:56:12.619Z,1.70
2023-01-12T19:58:39.517Z,1.47
2023-01-12T20:01:07.084Z,1.90
2023-01-12T20:03:34.856Z,1.60
2023-01-12T20:06:06.785Z,1.80
2023-01-12T20:08:33.684Z,2.20
2023-01-12T20:11:03.202Z,1.80
2023-01-12T20:13:31.008Z,1.90
2023-01-12T20:15:57.872Z,1.90
2023-01-12T20:18:24.727Z,1.90
2023-01-12T20:20:53.144Z,1.77
2023-01-12T20:23:20.334Z,2.30
2023-01-12T20:25:47.145Z,1.70
2023-01-12T20:28:14.790Z,1.63
2023-01-12T20:30:42.574Z,1.97
2023-01-12T20:33:09.622Z,1.60
2023-01-12T20:35:38.600Z,1.70
2023-01-12T20:38:06.946Z,1.53
2023-01-12T20:40:34.276Z,1.50
2023-01-12T20:43:01.018Z,1.63
2023-01-12T20:45:27.966Z,1.40
2023-01-12T20:47:56.370Z,1.50
2023-01-12T20:50:25.540Z,1.37
2023-01-12T20:52:54.123Z,1.47
2023-01-12T20:55:21.236Z,1.23
2023-01-12T20:57:48.154Z,1.40
2023-01-12T21:00:15.351Z,1.30
2023-01-12T21:02:42.065Z,1.30
2023-01-12T21:05:09.168Z,1.20
2023-01-12T21:07:36.069Z,1.20
2023-01-12T21:10:04.311Z,1.30
2023-01-12T21:12:31.025Z,1.60
2023-01-12T21:14:57.790Z,1.27
2023-01-12T21:17:24.527Z,1.23
2023-01-12T21:19:51.509Z,1.30
2023-01-12T21:22:20.533Z,0.70
2023-01-12T21:24:47.527Z,1.10
2023-01-12T21:27:14.297Z,1.00
2023-01-12T21:29:41.111Z,1.13
2023-01-12T21:32:08.280Z,0.90
2023-01-12T21:34:34.963Z,1.00
2023-01-12T21:37:01.695Z,1.00
2023-01-12T21:39:28.432Z,0.90
2023-01-12T21:42:13.953Z,0.97
2023-01-12T21:44:40.669Z,1.00
2023-01-12T21:47:07.333Z,1.23
2023-01-12T21:49:34.012Z,1.00
2023-01-12T21:52:00.736Z,1.20
2023-01-12T21:54:27.593Z,0.93
2023-01-12T21:56:54.349Z,1.27
2023-01-12T21:59:21.097Z,1.07
2023-01-12T22:01:48.475Z,1.10
2023-01-12T22:04:15.409Z,1.53
2023-01-12T22:06:42.177Z,1.17
2023-01-12T22:09:09.243Z,1.20
2023-01-12T22:11:36.034Z,1.03
2023-01-12T22:14:02.737Z,1.10
2023-01-12T22:16:29.721Z,1.13
2023-01-12T22:18:56.632Z,1.30
2023-01-12T22:21:23.488Z,1.30
2023-01-12T22:23:50.295Z,1.17
2023-01-12T22:26:18.125Z,0.73
2023-01-12T22:28:47.775Z,1.00
2023-01-12T22:31:20.609Z,1.40
2023-01-12T22:34:06.881Z,0.90
2023-01-12T22:36:40.927Z,1.27
2023-01-12T22:39:07.662Z,1.70
2023-01-12T22:41:34.438Z,1.20
2023-01-12T22:44:01.244Z,1.50
2023-01-12T22:46:28.348Z,1.10
2023-01-12T22:48:56.921Z,1.57
2023-01-12T22:51:25.497Z,1.00
2023-01-12T22:53:53.498Z,0.97
2023-01-12T22:56:20.597Z,0.87
2023-01-12T22:58:52.648Z,1.40
2023-01-12T23:01:21.121Z,1.57
2023-01-12T23:03:48.692Z,1.20
2023-01-12T23:06:16.920Z,1.77
2023-01-12T23:08:44.839Z,1.33
2023-01-12T23:11:20.640Z,1.63
2023-01-12T23:13:47.733Z,1.30
2023-01-12T23:16:16.226Z,1.20
2023-01-12T23:18:45.408Z,1.90
2023-01-12T23:21:18.282Z,1.57
2023-01-12T23:23:50.679Z,1.60
2023-01-12T23:26:23.349Z,1.97
2023-01-12T23:28:52.744Z,1.93
2023-01-12T23:31:21.507Z,2.03
2023-01-12T23:33:49.124Z,2.93
2023-01-12T23:36:18.677Z,2.50
2023-01-12T23:38:45.994Z,2.80
2023-01-12T23:41:19.323Z,1.73
2023-01-12T23:43:49.332Z,2.80
2023-01-12T23:46:17.190Z,1.73
2023-01-12T23:48:44.021Z,3.47
2023-01-12T23:51:11.265Z,2.20
2023-01-12T23:53:37.987Z,2.23
2023-01-12T23:56:06.978Z,1.87
2023-01-12T23:58:34.257Z,1.67
